Airport Name : Calgary Springbank

Other Name : Calgary

ICAO : CYBW

IATA : YBW

FAA :

Latitude : 51.103056

Longitude : -114.374444

Country : Canada

Local Date and Time : 1/22/2018 9:03:00 AM

 

TAF (Terminal Aerodrome Forecast)

TAF CYBW 221242Z 2213/2301 VRB03KT P6SM SCT220 RMK FCST BASED ON AUTO OBS. NXT FCST BY 221800Z

 

METAR (METeorological Aerodrome Report)

CYBW 221500Z AUTO 26014KT 9SM CLR M02/M11 A2974 RMK SLP128

CYBW 221400Z AUTO 26012KT 9SM CLR M04/M11 A2974 RMK SLP126

CYBW 221300Z AUTO 24007KT 9SM CLR M08/M14 A2973 RMK SLP132